Nearby METAR Reports

 

YMEN - Melbourne/Essendon, Australia
Distance from station: WNW 102km
Updated: 24/09/2021 08:00
Clear
Clear
 Wind from NNW
Wind: NNW 28 km/h
Temperature: 14°C
Dew Point: 7°C
Humidity: 63%
Barometer: 1009 hPa
Clouds: Clear
Visibility: 10 km
2021/09/23 22:00 YMEN 232200Z AUTO 33015KT 9999 // NCD 14/07 Q1009
YMML - Melbourne Intl A, Australia
Distance from station: WNW 111km
Updated: 24/09/2021 08:30
Few Clouds
Few Clouds
 Wind from N
Wind: N 22 km/h
Temperature: 14°C
Dew Point: 7°C
Humidity: 63%
Barometer: 1009 hPa
Clouds: Few Clouds
Visibility: 10 km
Cloud details: Few Clouds 701 m
2021/09/23 22:30 YMML 232230Z 36012KT 9999 FEW023 14/07 Q1009
 
YMAV - Avalon Airport, Australia
Distance from station: W 135km
Updated: 24/09/2021 08:30
Mostly cloudy
Mostly cloudy
 Wind from NW
Wind: NW 37 km/h, Gust: 56 km/h
Temperature: 16°C
Dew Point: 7°C
Humidity: 55%
Barometer: 1008 hPa
Clouds: Mostly cloudy
Visibility: 10 km
Cloud details: Mostly cloudy 3658 m
2021/09/23 22:30 YMAV 232230Z AUTO 31020G30KT 9999 // BKN120 16/07 Q1008
YWGT - Wangaratta Arp, Australia
Distance from station: N 172km
Updated: 24/09/2021 08:17
Partly cloudy
Partly cloudy
 Wind from NNE
Wind: NNE 6 km/h
Temperature: 9°C
Dew Point: 9°C
Humidity: 100%
Barometer: 1013 hPa
Clouds: Partly cloudy
Visibility: 10 km
Cloud details: Partly cloudy 61 m
2021/09/23 22:17 YWGT 232217Z AUTO 02003KT 9999 // SCT002 09/09 Q1013